sensor_id;sensor_type;location;lat;lon;timestamp;P1;durP1;ratioP1;P2;durP2;ratioP2
26062;SDS011;13837;48.562;12.108;2023-05-10T00:01:47;12.25;;;11.35;;
26062;SDS011;13837;48.562;12.108;2023-05-10T00:04:13;12.45;;;11.40;;
26062;SDS011;13837;48.562;12.108;2023-05-10T00:06:39;13.15;;;12.00;;
26062;SDS011;13837;48.562;12.108;2023-05-10T00:09:05;12.65;;;11.45;;
26062;SDS011;13837;48.562;12.108;2023-05-10T00:11:31;12.23;;;11.27;;
26062;SDS011;13837;48.562;12.108;2023-05-10T00:13:57;12.13;;;11.23;;
26062;SDS011;13837;48.562;12.108;2023-05-10T00:16:23;13.48;;;12.23;;
26062;SDS011;13837;48.562;12.108;2023-05-10T00:18:50;12.88;;;11.82;;
26062;SDS011;13837;48.562;12.108;2023-05-10T00:21:16;12.18;;;10.98;;
26062;SDS011;13837;48.562;12.108;2023-05-10T00:23:42;13.93;;;12.82;;
26062;SDS011;13837;48.562;12.108;2023-05-10T00:26:08;13.30;;;12.20;;
26062;SDS011;13837;48.562;12.108;2023-05-10T00:28:36;13.55;;;12.30;;
26062;SDS011;13837;48.562;12.108;2023-05-10T00:31:05;13.32;;;12.15;;
26062;SDS011;13837;48.562;12.108;2023-05-10T00:33:31;12.60;;;11.70;;
26062;SDS011;13837;48.562;12.108;2023-05-10T00:35:57;13.10;;;12.05;;
26062;SDS011;13837;48.562;12.108;2023-05-10T00:38:23;13.15;;;11.80;;
26062;SDS011;13837;48.562;12.108;2023-05-10T00:40:49;11.18;;;10.07;;
26062;SDS011;13837;48.562;12.108;2023-05-10T00:43:24;11.00;;;9.90;;
26062;SDS011;13837;48.562;12.108;2023-05-10T00:45:50;13.18;;;11.82;;
26062;SDS011;13837;48.562;12.108;2023-05-10T00:48:16;9.18;;;8.27;;
26062;SDS011;13837;48.562;12.108;2023-05-10T00:50:42;10.45;;;9.35;;
26062;SDS011;13837;48.562;12.108;2023-05-10T00:53:08;14.82;;;11.57;;
26062;SDS011;13837;48.562;12.108;2023-05-10T00:55:35;11.52;;;10.27;;
26062;SDS011;13837;48.562;12.108;2023-05-10T00:58:01;13.50;;;12.15;;
26062;SDS011;13837;48.562;12.108;2023-05-10T01:00:27;11.73;;;10.38;;
26062;SDS011;13837;48.562;12.108;2023-05-10T01:02:54;12.43;;;10.60;;
26062;SDS011;13837;48.562;12.108;2023-05-10T01:05:21;11.65;;;10.45;;
26062;SDS011;13837;48.562;12.108;2023-05-10T01:07:47;17.73;;;15.95;;
26062;SDS011;13837;48.562;12.108;2023-05-10T01:10:13;16.45;;;14.95;;
26062;SDS011;13837;48.562;12.108;2023-05-10T01:12:41;16.50;;;12.15;;
26062;SDS011;13837;48.562;12.108;2023-05-10T01:15:08;14.88;;;10.45;;
26062;SDS011;13837;48.562;12.108;2023-05-10T01:17:37;18.50;;;16.60;;
26062;SDS011;13837;48.562;12.108;2023-05-10T01:20:03;16.50;;;14.85;;
26062;SDS011;13837;48.562;12.108;2023-05-10T01:35:36;14.85;;;13.43;;
26062;SDS011;13837;48.562;12.108;2023-05-10T01:38:16;14.90;;;13.55;;
26062;SDS011;13837;48.562;12.108;2023-05-10T01:43:16;13.93;;;12.60;;
26062;SDS011;13837;48.562;12.108;2023-05-10T01:46:03;10.90;;;9.75;;
26062;SDS011;13837;48.562;12.108;2023-05-10T01:48:36;13.80;;;12.50;;
26062;SDS011;13837;48.562;12.108;2023-05-10T01:51:03;10.63;;;9.60;;
26062;SDS011;13837;48.562;12.108;2023-05-10T01:53:31;9.30;;;8.40;;
26062;SDS011;13837;48.562;12.108;2023-05-10T01:55:59;13.35;;;12.15;;
26062;SDS011;13837;48.562;12.108;2023-05-10T01:58:29;13.77;;;12.68;;
26062;SDS011;13837;48.562;12.108;2023-05-10T02:00:58;12.70;;;11.70;;
26062;SDS011;13837;48.562;12.108;2023-05-10T02:03:25;12.55;;;11.65;;
26062;SDS011;13837;48.562;12.108;2023-05-10T02:05:53;12.05;;;11.15;;
26062;SDS011;13837;48.562;12.108;2023-05-10T02:08:21;13.30;;;12.15;;
26062;SDS011;13837;48.562;12.108;2023-05-10T02:10:47;12.48;;;11.38;;
26062;SDS011;13837;48.562;12.108;2023-05-10T02:13:14;11.60;;;10.70;;
26062;SDS011;13837;48.562;12.108;2023-05-10T02:15:41;11.27;;;10.48;;
26062;SDS011;13837;48.562;12.108;2023-05-10T02:18:10;7.20;;;6.50;;
26062;SDS011;13837;48.562;12.108;2023-05-10T02:20:37;11.32;;;10.38;;
26062;SDS011;13837;48.562;12.108;2023-05-10T02:23:03;11.25;;;10.45;;
26062;SDS011;13837;48.562;12.108;2023-05-10T02:25:30;8.88;;;7.22;;
26062;SDS011;13837;48.562;12.108;2023-05-10T02:27:57;8.00;;;7.20;;
26062;SDS011;13837;48.562;12.108;2023-05-10T02:30:25;12.60;;;11.40;;
26062;SDS011;13837;48.562;12.108;2023-05-10T02:32:51;8.02;;;7.22;;
26062;SDS011;13837;48.562;12.108;2023-05-10T02:35:17;8.40;;;6.97;;
26062;SDS011;13837;48.562;12.108;2023-05-10T02:37:44;9.32;;;7.40;;
26062;SDS011;13837;48.562;12.108;2023-05-10T02:40:11;8.18;;;7.32;;
26062;SDS011;13837;48.562;12.108;2023-05-10T02:42:38;6.47;;;5.88;;
26062;SDS011;13837;48.562;12.108;2023-05-10T02:45:08;6.25;;;5.18;;
26062;SDS011;13837;48.562;12.108;2023-05-10T02:47:36;6.35;;;5.20;;
26062;SDS011;13837;48.562;12.108;2023-05-10T02:50:02;5.70;;;5.20;;
26062;SDS011;13837;48.562;12.108;2023-05-10T02:52:36;5.65;;;5.15;;
26062;SDS011;13837;48.562;12.108;2023-05-10T02:55:05;4.97;;;4.20;;
26062;SDS011;13837;48.562;12.108;2023-05-10T02:57:33;4.82;;;4.43;;
26062;SDS011;13837;48.562;12.108;2023-05-10T03:00:00;4.78;;;4.38;;
26062;SDS011;13837;48.562;12.108;2023-05-10T03:02:26;5.13;;;4.47;;
26062;SDS011;13837;48.562;12.108;2023-05-10T03:04:53;4.10;;;3.80;;
26062;SDS011;13837;48.562;12.108;2023-05-10T03:07:19;4.03;;;3.70;;
26062;SDS011;13837;48.562;12.108;2023-05-10T03:09:47;4.63;;;4.32;;
26062;SDS011;13837;48.562;12.108;2023-05-10T03:12:27;5.20;;;4.80;;
26062;SDS011;13837;48.562;12.108;2023-05-10T03:15:07;8.48;;;7.85;;
26062;SDS011;13837;48.562;12.108;2023-05-10T03:20:04;7.43;;;6.93;;
26062;SDS011;13837;48.562;12.108;2023-05-10T03:22:37;5.43;;;5.03;;
26062;SDS011;13837;48.562;12.108;2023-05-10T03:25:04;4.97;;;4.57;;
26062;SDS011;13837;48.562;12.108;2023-05-10T03:27:32;6.72;;;6.22;;
26062;SDS011;13837;48.562;12.108;2023-05-10T03:29:59;9.63;;;9.02;;
26062;SDS011;13837;48.562;12.108;2023-05-10T03:32:29;9.45;;;8.85;;
26062;SDS011;13837;48.562;12.108;2023-05-10T03:34:57;5.90;;;5.35;;
26062;SDS011;13837;48.562;12.108;2023-05-10T03:37:24;4.68;;;4.28;;
26062;SDS011;13837;48.562;12.108;2023-05-10T03:39:51;4.57;;;4.18;;
26062;SDS011;13837;48.562;12.108;2023-05-10T03:42:17;5.47;;;5.07;;
26062;SDS011;13837;48.562;12.108;2023-05-10T03:44:43;5.05;;;4.72;;
26062;SDS011;13837;48.562;12.108;2023-05-10T03:47:09;4.20;;;3.72;;
26062;SDS011;13837;48.562;12.108;2023-05-10T03:49:35;4.88;;;4.47;;
26062;SDS011;13837;48.562;12.108;2023-05-10T03:52:02;4.30;;;3.90;;
26062;SDS011;13837;48.562;12.108;2023-05-10T03:54:28;4.50;;;3.80;;
26062;SDS011;13837;48.562;12.108;2023-05-10T03:56:54;3.88;;;3.53;;
26062;SDS011;13837;48.562;12.108;2023-05-10T03:59:21;4.05;;;3.75;;
26062;SDS011;13837;48.562;12.108;2023-05-10T04:01:47;4.35;;;3.95;;
26062;SDS011;13837;48.562;12.108;2023-05-10T04:04:13;4.20;;;3.90;;
26062;SDS011;13837;48.562;12.108;2023-05-10T04:06:39;5.68;;;3.92;;
26062;SDS011;13837;48.562;12.108;2023-05-10T04:09:05;3.90;;;3.63;;
26062;SDS011;13837;48.562;12.108;2023-05-10T04:11:32;4.30;;;4.00;;
26062;SDS011;13837;48.562;12.108;2023-05-10T04:13:58;5.63;;;5.22;;
26062;SDS011;13837;48.562;12.108;2023-05-10T04:16:24;6.05;;;5.60;;
26062;SDS011;13837;48.562;12.108;2023-05-10T04:18:50;7.18;;;6.78;;
26062;SDS011;13837;48.562;12.108;2023-05-10T04:21:16;7.40;;;6.90;;
26062;SDS011;13837;48.562;12.108;2023-05-10T04:23:42;7.65;;;7.15;;
26062;SDS011;13837;48.562;12.108;2023-05-10T04:26:09;7.47;;;6.97;;
26062;SDS011;13837;48.562;12.108;2023-05-10T04:28:35;7.90;;;7.50;;
26062;SDS011;13837;48.562;12.108;2023-05-10T04:31:10;7.30;;;7.00;;
26062;SDS011;13837;48.562;12.108;2023-05-10T04:33:36;8.43;;;7.88;;
26062;SDS011;13837;48.562;12.108;2023-05-10T04:36:02;7.93;;;7.53;;
26062;SDS011;13837;48.562;12.108;2023-05-10T04:38:28;8.18;;;7.60;;
26062;SDS011;13837;48.562;12.108;2023-05-10T04:41:03;8.15;;;7.75;;
26062;SDS011;13837;48.562;12.108;2023-05-10T04:43:30;9.30;;;8.48;;
26062;SDS011;13837;48.562;12.108;2023-05-10T04:45:56;8.70;;;8.20;;
26062;SDS011;13837;48.562;12.108;2023-05-10T04:48:22;8.95;;;8.45;;
26062;SDS011;13837;48.562;12.108;2023-05-10T04:50:48;8.85;;;8.35;;
26062;SDS011;13837;48.562;12.108;2023-05-10T04:53:14;9.13;;;8.52;;
26062;SDS011;13837;48.562;12.108;2023-05-10T04:55:40;9.25;;;8.55;;
26062;SDS011;13837;48.562;12.108;2023-05-10T04:58:06;9.77;;;8.95;;
26062;SDS011;13837;48.562;12.108;2023-05-10T05:00:32;9.95;;;9.02;;
26062;SDS011;13837;48.562;12.108;2023-05-10T05:02:59;8.95;;;8.23;;
26062;SDS011;13837;48.562;12.108;2023-05-10T05:05:25;8.95;;;8.35;;
26062;SDS011;13837;48.562;12.108;2023-05-10T05:07:51;8.38;;;7.93;;
26062;SDS011;13837;48.562;12.108;2023-05-10T05:10:17;8.35;;;7.95;;
26062;SDS011;13837;48.562;12.108;2023-05-10T05:12:43;9.15;;;8.55;;
26062;SDS011;13837;48.562;12.108;2023-05-10T05:15:10;8.80;;;8.30;;
26062;SDS011;13837;48.562;12.108;2023-05-10T05:17:36;8.68;;;8.18;;
26062;SDS011;13837;48.562;12.108;2023-05-10T05:20:02;9.45;;;8.75;;
26062;SDS011;13837;48.562;12.108;2023-05-10T05:22:28;8.50;;;8.10;;
26062;SDS011;13837;48.562;12.108;2023-05-10T05:24:55;8.50;;;8.10;;
26062;SDS011;13837;48.562;12.108;2023-05-10T05:27:21;8.70;;;8.10;;
26062;SDS011;13837;48.562;12.108;2023-05-10T05:29:52;8.80;;;8.20;;
26062;SDS011;13837;48.562;12.108;2023-05-10T05:32:18;9.00;;;8.50;;
26062;SDS011;13837;48.562;12.108;2023-05-10T05:34:45;8.90;;;8.20;;
26062;SDS011;13837;48.562;12.108;2023-05-10T05:37:18;9.05;;;8.45;;
26062;SDS011;13837;48.562;12.108;2023-05-10T05:39:45;7.20;;;6.82;;
26062;SDS011;13837;48.562;12.108;2023-05-10T05:42:11;7.70;;;7.20;;
26062;SDS011;13837;48.562;12.108;2023-05-10T05:44:38;7.40;;;7.10;;
26062;SDS011;13837;48.562;12.108;2023-05-10T05:47:05;7.70;;;7.20;;
26062;SDS011;13837;48.562;12.108;2023-05-10T05:49:31;7.28;;;6.82;;
26062;SDS011;13837;48.562;12.108;2023-05-10T05:52:01;6.93;;;6.70;;
26062;SDS011;13837;48.562;12.108;2023-05-10T05:54:27;7.10;;;6.80;;
26062;SDS011;13837;48.562;12.108;2023-05-10T05:56:56;7.47;;;7.18;;
26062;SDS011;13837;48.562;12.108;2023-05-10T05:59:22;7.25;;;6.95;;
26062;SDS011;13837;48.562;12.108;2023-05-10T06:01:48;7.57;;;7.18;;
26062;SDS011;13837;48.562;12.108;2023-05-10T06:04:15;8.02;;;7.72;;
26062;SDS011;13837;48.562;12.108;2023-05-10T06:06:41;8.23;;;7.68;;
26062;SDS011;13837;48.562;12.108;2023-05-10T06:09:07;8.75;;;8.35;;
26062;SDS011;13837;48.562;12.108;2023-05-10T06:11:33;8.52;;;8.13;;
26062;SDS011;13837;48.562;12.108;2023-05-10T06:14:00;8.85;;;8.38;;
26062;SDS011;13837;48.562;12.108;2023-05-10T06:16:26;9.38;;;8.77;;
26062;SDS011;13837;48.562;12.108;2023-05-10T06:18:53;8.70;;;8.30;;
26062;SDS011;13837;48.562;12.108;2023-05-10T06:21:19;8.55;;;8.10;;
26062;SDS011;13837;48.562;12.108;2023-05-10T06:23:45;8.82;;;8.43;;
26062;SDS011;13837;48.562;12.108;2023-05-10T06:26:11;8.98;;;8.48;;
26062;SDS011;13837;48.562;12.108;2023-05-10T06:28:38;9.07;;;8.57;;
26062;SDS011;13837;48.562;12.108;2023-05-10T06:31:05;9.13;;;8.63;;
26062;SDS011;13837;48.562;12.108;2023-05-10T06:33:31;9.00;;;8.60;;
26062;SDS011;13837;48.562;12.108;2023-05-10T06:35:57;8.82;;;8.35;;
26062;SDS011;13837;48.562;12.108;2023-05-10T06:38:23;9.07;;;8.50;;
26062;SDS011;13837;48.562;12.108;2023-05-10T06:40:50;9.30;;;8.57;;
26062;SDS011;13837;48.562;12.108;2023-05-10T06:43:16;8.70;;;8.30;;
26062;SDS011;13837;48.562;12.108;2023-05-10T06:45:42;9.00;;;8.60;;
26062;SDS011;13837;48.562;12.108;2023-05-10T06:48:08;9.63;;;9.02;;
26062;SDS011;13837;48.562;12.108;2023-05-10T06:50:34;8.82;;;8.40;;
26062;SDS011;13837;48.562;12.108;2023-05-10T06:53:00;8.77;;;8.38;;
26062;SDS011;13837;48.562;12.108;2023-05-10T06:55:29;8.52;;;8.10;;
26062;SDS011;13837;48.562;12.108;2023-05-10T06:57:55;8.60;;;8.10;;
26062;SDS011;13837;48.562;12.108;2023-05-10T07:00:21;8.05;;;7.75;;
26062;SDS011;13837;48.562;12.108;2023-05-10T07:02:47;8.82;;;8.40;;
26062;SDS011;13837;48.562;12.108;2023-05-10T07:05:13;8.43;;;8.13;;
26062;SDS011;13837;48.562;12.108;2023-05-10T07:07:40;9.00;;;8.20;;
26062;SDS011;13837;48.562;12.108;2023-05-10T07:10:06;8.50;;;8.20;;
26062;SDS011;13837;48.562;12.108;2023-05-10T07:12:32;8.50;;;8.10;;
26062;SDS011;13837;48.562;12.108;2023-05-10T07:14:59;8.50;;;8.10;;
26062;SDS011;13837;48.562;12.108;2023-05-10T07:17:25;8.60;;;8.10;;
26062;SDS011;13837;48.562;12.108;2023-05-10T07:19:51;8.55;;;8.15;;
26062;SDS011;13837;48.562;12.108;2023-05-10T07:22:17;8.73;;;8.23;;
26062;SDS011;13837;48.562;12.108;2023-05-10T07:24:43;9.02;;;8.63;;
26062;SDS011;13837;48.562;12.108;2023-05-10T07:27:10;8.65;;;8.27;;
26062;SDS011;13837;48.562;12.108;2023-05-10T07:29:36;7.07;;;6.78;;
26062;SDS011;13837;48.562;12.108;2023-05-10T07:32:02;10.25;;;9.63;;
26062;SDS011;13837;48.562;12.108;2023-05-10T07:34:28;10.85;;;10.10;;
26062;SDS011;13837;48.562;12.108;2023-05-10T07:36:57;10.63;;;10.00;;
26062;SDS011;13837;48.562;12.108;2023-05-10T07:39:23;10.35;;;9.85;;
26062;SDS011;13837;48.562;12.108;2023-05-10T07:41:49;10.30;;;9.70;;
26062;SDS011;13837;48.562;12.108;2023-05-10T07:44:15;10.43;;;9.82;;
26062;SDS011;13837;48.562;12.108;2023-05-10T07:46:44;10.40;;;9.88;;
26062;SDS011;13837;48.562;12.108;2023-05-10T07:49:10;10.65;;;9.98;;
26062;SDS011;13837;48.562;12.108;2023-05-10T07:51:36;11.60;;;10.80;;
26062;SDS011;13837;48.562;12.108;2023-05-10T07:54:02;11.45;;;10.75;;
26062;SDS011;13837;48.562;12.108;2023-05-10T07:56:29;10.15;;;9.50;;
26062;SDS011;13837;48.562;12.108;2023-05-10T07:58:56;11.30;;;10.60;;
26062;SDS011;13837;48.562;12.108;2023-05-10T08:01:23;11.57;;;10.98;;
26062;SDS011;13837;48.562;12.108;2023-05-10T08:03:49;11.07;;;10.48;;
26062;SDS011;13837;48.562;12.108;2023-05-10T08:06:16;10.75;;;10.15;;
26062;SDS011;13837;48.562;12.108;2023-05-10T08:08:43;10.20;;;9.63;;
26062;SDS011;13837;48.562;12.108;2023-05-10T08:11:10;6.45;;;6.05;;
26062;SDS011;13837;48.562;12.108;2023-05-10T08:13:36;5.40;;;5.00;;
26062;SDS011;13837;48.562;12.108;2023-05-10T08:16:02;5.70;;;5.13;;
26062;SDS011;13837;48.562;12.108;2023-05-10T08:18:28;6.65;;;6.25;;
26062;SDS011;13837;48.562;12.108;2023-05-10T08:20:55;5.25;;;4.95;;
26062;SDS011;13837;48.562;12.108;2023-05-10T08:23:21;6.55;;;6.03;;
26062;SDS011;13837;48.562;12.108;2023-05-10T08:25:47;4.68;;;4.38;;
26062;SDS011;13837;48.562;12.108;2023-05-10T08:28:13;4.10;;;3.90;;
26062;SDS011;13837;48.562;12.108;2023-05-10T08:30:40;4.28;;;3.88;;
26062;SDS011;13837;48.562;12.108;2023-05-10T08:33:06;8.57;;;8.07;;
26062;SDS011;13837;48.562;12.108;2023-05-10T08:35:32;6.72;;;6.32;;
26062;SDS011;13837;48.562;12.108;2023-05-10T08:38:00;3.60;;;3.40;;
26062;SDS011;13837;48.562;12.108;2023-05-10T08:40:26;4.32;;;3.97;;
26062;SDS011;13837;48.562;12.108;2023-05-10T08:42:57;3.72;;;3.28;;
26062;SDS011;13837;48.562;12.108;2023-05-10T08:45:24;3.25;;;3.05;;
26062;SDS011;13837;48.562;12.108;2023-05-10T08:47:51;3.40;;;3.20;;
26062;SDS011;13837;48.562;12.108;2023-05-10T08:50:18;2.85;;;2.75;;
26062;SDS011;13837;48.562;12.108;2023-05-10T08:52:44;2.85;;;2.75;;
26062;SDS011;13837;48.562;12.108;2023-05-10T08:55:13;3.65;;;3.35;;
26062;SDS011;13837;48.562;12.108;2023-05-10T08:57:39;3.45;;;3.17;;
26062;SDS011;13837;48.562;12.108;2023-05-10T09:00:06;3.97;;;3.78;;
26062;SDS011;13837;48.562;12.108;2023-05-10T09:02:33;3.30;;;3.10;;
26062;SDS011;13837;48.562;12.108;2023-05-10T09:04:59;2.92;;;2.70;;
26062;SDS011;13837;48.562;12.108;2023-05-10T09:07:25;3.63;;;3.33;;
26062;SDS011;13837;48.562;12.108;2023-05-10T09:09:51;3.08;;;2.97;;
26062;SDS011;13837;48.562;12.108;2023-05-10T09:12:18;3.10;;;2.90;;
26062;SDS011;13837;48.562;12.108;2023-05-10T09:14:44;3.00;;;2.80;;
26062;SDS011;13837;48.562;12.108;2023-05-10T09:17:11;2.58;;;2.22;;
26062;SDS011;13837;48.562;12.108;2023-05-10T09:19:41;2.78;;;2.63;;
26062;SDS011;13837;48.562;12.108;2023-05-10T09:24:33;5.57;;;2.70;;
26062;SDS011;13837;48.562;12.108;2023-05-10T09:26:59;2.67;;;2.47;;
26062;SDS011;13837;48.562;12.108;2023-05-10T09:29:38;2.35;;;2.15;;
26062;SDS011;13837;48.562;12.108;2023-05-10T09:32:05;3.55;;;3.35;;
26062;SDS011;13837;48.562;12.108;2023-05-10T09:34:32;2.80;;;2.60;;
26062;SDS011;13837;48.562;12.108;2023-05-10T09:37:01;3.45;;;3.28;;
26062;SDS011;13837;48.562;12.108;2023-05-10T09:39:33;4.18;;;3.88;;
26062;SDS011;13837;48.562;12.108;2023-05-10T09:41:59;3.47;;;2.42;;
26062;SDS011;13837;48.562;12.108;2023-05-10T09:44:26;2.10;;;1.98;;
26062;SDS011;13837;48.562;12.108;2023-05-10T09:46:52;5.20;;;2.05;;
26062;SDS011;13837;48.562;12.108;2023-05-10T09:49:19;2.40;;;2.30;;
26062;SDS011;13837;48.562;12.108;2023-05-10T09:51:45;4.05;;;3.80;;
26062;SDS011;13837;48.562;12.108;2023-05-10T09:54:12;6.80;;;6.43;;
26062;SDS011;13837;48.562;12.108;2023-05-10T09:56:39;5.22;;;3.70;;
26062;SDS011;13837;48.562;12.108;2023-05-10T09:59:06;4.75;;;4.55;;
26062;SDS011;13837;48.562;12.108;2023-05-10T10:01:33;3.30;;;3.10;;
26062;SDS011;13837;48.562;12.108;2023-05-10T10:04:02;4.03;;;3.75;;
26062;SDS011;13837;48.562;12.108;2023-05-10T10:06:28;3.67;;;3.38;;
26062;SDS011;13837;48.562;12.108;2023-05-10T10:08:55;3.63;;;3.33;;
26062;SDS011;13837;48.562;12.108;2023-05-10T10:11:22;3.50;;;3.20;;
26062;SDS011;13837;48.562;12.108;2023-05-10T10:13:49;3.58;;;3.35;;
26062;SDS011;13837;48.562;12.108;2023-05-10T10:16:15;3.50;;;3.33;;
26062;SDS011;13837;48.562;12.108;2023-05-10T10:18:42;3.70;;;3.40;;
26062;SDS011;13837;48.562;12.108;2023-05-10T10:21:08;3.55;;;3.35;;
26062;SDS011;13837;48.562;12.108;2023-05-10T10:23:35;3.70;;;3.50;;
26062;SDS011;13837;48.562;12.108;2023-05-10T10:26:02;3.58;;;3.40;;
26062;SDS011;13837;48.562;12.108;2023-05-10T10:28:32;3.97;;;3.75;;
26062;SDS011;13837;48.562;12.108;2023-05-10T10:31:03;3.38;;;3.17;;
26062;SDS011;13837;48.562;12.108;2023-05-10T10:36:45;3.92;;;3.72;;
26062;SDS011;13837;48.562;12.108;2023-05-10T10:39:12;3.53;;;3.20;;
26062;SDS011;13837;48.562;12.108;2023-05-10T10:41:40;3.80;;;3.50;;
26062;SDS011;13837;48.562;12.108;2023-05-10T10:44:22;5.65;;;3.65;;
26062;SDS011;13837;48.562;12.108;2023-05-10T10:47:33;3.47;;;3.38;;
26062;SDS011;13837;48.562;12.108;2023-05-10T10:54:40;4.13;;;3.83;;
26062;SDS011;13837;48.562;12.108;2023-05-10T10:57:10;3.30;;;3.10;;
26062;SDS011;13837;48.562;12.108;2023-05-10T10:59:44;3.55;;;3.35;;
26062;SDS011;13837;48.562;12.108;2023-05-10T11:04:56;4.20;;;3.97;;
26062;SDS011;13837;48.562;12.108;2023-05-10T11:07:22;4.90;;;4.55;;
26062;SDS011;13837;48.562;12.108;2023-05-10T11:09:49;3.58;;;3.38;;
26062;SDS011;13837;48.562;12.108;2023-05-10T11:12:15;3.60;;;3.40;;
26062;SDS011;13837;48.562;12.108;2023-05-10T11:14:41;5.15;;;3.50;;
26062;SDS011;13837;48.562;12.108;2023-05-10T11:17:27;3.38;;;3.17;;
26062;SDS011;13837;48.562;12.108;2023-05-10T11:20:33;5.15;;;3.25;;
26062;SDS011;13837;48.562;12.108;2023-05-10T11:22:54;4.45;;;4.25;;
26062;SDS011;13837;48.562;12.108;2023-05-10T11:25:22;6.90;;;5.97;;
26062;SDS011;13837;48.562;12.108;2023-05-10T11:27:52;6.85;;;6.45;;
26062;SDS011;13837;48.562;12.108;2023-05-10T11:30:18;4.50;;;3.90;;
26062;SDS011;13837;48.562;12.108;2023-05-10T11:32:44;4.68;;;4.05;;
26062;SDS011;13837;48.562;12.108;2023-05-10T11:35:10;4.28;;;3.40;;
26062;SDS011;13837;48.562;12.108;2023-05-10T11:37:38;6.13;;;3.35;;
26062;SDS011;13837;48.562;12.108;2023-05-10T11:40:08;3.15;;;3.05;;
26062;SDS011;13837;48.562;12.108;2023-05-10T11:42:37;3.97;;;2.85;;
26062;SDS011;13837;48.562;12.108;2023-05-10T11:47:30;3.05;;;2.85;;
26062;SDS011;13837;48.562;12.108;2023-05-10T11:49:56;4.20;;;2.22;;
26062;SDS011;13837;48.562;12.108;2023-05-10T11:52:23;2.83;;;2.63;;
26062;SDS011;13837;48.562;12.108;2023-05-10T11:54:52;2.50;;;2.40;;
26062;SDS011;13837;48.562;12.108;2023-05-10T11:57:19;2.97;;;2.78;;
26062;SDS011;13837;48.562;12.108;2023-05-10T11:59:52;3.03;;;2.70;;
26062;SDS011;13837;48.562;12.108;2023-05-10T12:02:19;3.17;;;2.92;;
26062;SDS011;13837;48.562;12.108;2023-05-10T12:04:46;3.55;;;3.40;;
26062;SDS011;13837;48.562;12.108;2023-05-10T12:07:12;3.25;;;2.63;;
26062;SDS011;13837;48.562;12.108;2023-05-10T12:09:44;2.10;;;1.90;;
26062;SDS011;13837;48.562;12.108;2023-05-10T12:12:15;3.10;;;1.90;;
26062;SDS011;13837;48.562;12.108;2023-05-10T12:14:42;3.72;;;2.90;;
26062;SDS011;13837;48.562;12.108;2023-05-10T12:17:11;3.55;;;3.28;;
26062;SDS011;13837;48.562;12.108;2023-05-10T12:19:38;3.45;;;2.50;;
26062;SDS011;13837;48.562;12.108;2023-05-10T12:22:05;2.90;;;2.50;;
26062;SDS011;13837;48.562;12.108;2023-05-10T12:24:33;5.47;;;5.18;;
26062;SDS011;13837;48.562;12.108;2023-05-10T12:26:59;5.15;;;4.88;;
26062;SDS011;13837;48.562;12.108;2023-05-10T12:29:25;5.82;;;5.50;;
26062;SDS011;13837;48.562;12.108;2023-05-10T12:31:55;5.40;;;5.20;;
26062;SDS011;13837;48.562;12.108;2023-05-10T12:34:31;5.50;;;5.20;;
26062;SDS011;13837;48.562;12.108;2023-05-10T12:36:57;5.28;;;5.07;;
26062;SDS011;13837;48.562;12.108;2023-05-10T12:39:24;4.63;;;4.30;;
26062;SDS011;13837;48.562;12.108;2023-05-10T12:41:50;4.78;;;4.55;;
26062;SDS011;13837;48.562;12.108;2023-05-10T12:44:17;4.60;;;4.30;;
26062;SDS011;13837;48.562;12.108;2023-05-10T12:46:43;4.43;;;4.13;;
26062;SDS011;13837;48.562;12.108;2023-05-10T12:49:09;4.90;;;4.60;;
26062;SDS011;13837;48.562;12.108;2023-05-10T12:51:35;5.18;;;4.70;;
26062;SDS011;13837;48.562;12.108;2023-05-10T12:54:05;6.63;;;4.80;;
26062;SDS011;13837;48.562;12.108;2023-05-10T12:58:57;5.28;;;4.97;;
26062;SDS011;13837;48.562;12.108;2023-05-10T13:01:23;5.38;;;5.00;;
26062;SDS011;13837;48.562;12.108;2023-05-10T13:03:49;5.38;;;5.07;;
26062;SDS011;13837;48.562;12.108;2023-05-10T13:06:15;5.30;;;4.90;;
26062;SDS011;13837;48.562;12.108;2023-05-10T13:08:41;5.82;;;5.38;;
26062;SDS011;13837;48.562;12.108;2023-05-10T13:11:08;5.78;;;5.50;;
26062;SDS011;13837;48.562;12.108;2023-05-10T13:13:34;6.07;;;5.78;;
26062;SDS011;13837;48.562;12.108;2023-05-10T13:16:00;5.65;;;5.35;;
26062;SDS011;13837;48.562;12.108;2023-05-10T13:18:26;5.97;;;5.57;;
26062;SDS011;13837;48.562;12.108;2023-05-10T13:20:53;6.90;;;6.40;;
26062;SDS011;13837;48.562;12.108;2023-05-10T13:23:20;6.90;;;6.55;;
26062;SDS011;13837;48.562;12.108;2023-05-10T13:25:46;7.43;;;6.43;;
26062;SDS011;13837;48.562;12.108;2023-05-10T13:28:12;7.22;;;6.80;;
26062;SDS011;13837;48.562;12.108;2023-05-10T13:30:39;6.95;;;6.63;;
26062;SDS011;13837;48.562;12.108;2023-05-10T13:33:05;7.60;;;7.00;;
26062;SDS011;13837;48.562;12.108;2023-05-10T13:35:31;7.00;;;6.60;;
26062;SDS011;13837;48.562;12.108;2023-05-10T13:37:57;7.80;;;7.38;;
26062;SDS011;13837;48.562;12.108;2023-05-10T13:40:23;8.30;;;7.60;;
26062;SDS011;13837;48.562;12.108;2023-05-10T13:42:49;7.93;;;7.53;;
26062;SDS011;13837;48.562;12.108;2023-05-10T13:45:15;9.70;;;7.82;;
26062;SDS011;13837;48.562;12.108;2023-05-10T13:47:41;8.65;;;8.05;;
26062;SDS011;13837;48.562;12.108;2023-05-10T13:50:08;10.52;;;9.38;;
26062;SDS011;13837;48.562;12.108;2023-05-10T13:52:34;10.13;;;9.32;;
26062;SDS011;13837;48.562;12.108;2023-05-10T13:55:00;10.57;;;9.43;;
26062;SDS011;13837;48.562;12.108;2023-05-10T13:57:27;10.80;;;9.13;;
26062;SDS011;13837;48.562;12.108;2023-05-10T13:59:53;10.02;;;9.00;;
26062;SDS011;13837;48.562;12.108;2023-05-10T14:02:20;9.77;;;8.55;;
26062;SDS011;13837;48.562;12.108;2023-05-10T14:04:46;9.77;;;8.85;;
26062;SDS011;13837;48.562;12.108;2023-05-10T14:07:13;9.60;;;8.57;;
26062;SDS011;13837;48.562;12.108;2023-05-10T14:09:39;9.93;;;9.13;;
26062;SDS011;13837;48.562;12.108;2023-05-10T14:12:05;9.68;;;8.80;;
26062;SDS011;13837;48.562;12.108;2023-05-10T14:14:31;9.98;;;9.00;;
26062;SDS011;13837;48.562;12.108;2023-05-10T14:16:57;9.70;;;8.93;;
26062;SDS011;13837;48.562;12.108;2023-05-10T14:19:24;8.90;;;8.20;;
26062;SDS011;13837;48.562;12.108;2023-05-10T14:21:51;8.05;;;7.55;;
26062;SDS011;13837;48.562;12.108;2023-05-10T14:24:18;8.13;;;7.30;;
26062;SDS011;13837;48.562;12.108;2023-05-10T14:26:44;5.70;;;5.35;;
26062;SDS011;13837;48.562;12.108;2023-05-10T14:29:10;6.63;;;6.20;;
26062;SDS011;13837;48.562;12.108;2023-05-10T14:31:36;4.25;;;3.95;;
26062;SDS011;13837;48.562;12.108;2023-05-10T14:34:02;3.38;;;3.00;;
26062;SDS011;13837;48.562;12.108;2023-05-10T14:36:28;3.25;;;3.03;;
26062;SDS011;13837;48.562;12.108;2023-05-10T14:38:54;4.55;;;4.07;;
26062;SDS011;13837;48.562;12.108;2023-05-10T14:41:20;4.65;;;4.18;;
26062;SDS011;13837;48.562;12.108;2023-05-10T14:43:46;3.47;;;3.28;;
26062;SDS011;13837;48.562;12.108;2023-05-10T14:46:12;9.68;;;3.22;;
26062;SDS011;13837;48.562;12.108;2023-05-10T14:48:39;3.50;;;3.30;;
26062;SDS011;13837;48.562;12.108;2023-05-10T14:51:05;3.70;;;3.50;;
26062;SDS011;13837;48.562;12.108;2023-05-10T14:53:31;4.35;;;3.67;;
26062;SDS011;13837;48.562;12.108;2023-05-10T14:55:57;3.83;;;3.53;;
26062;SDS011;13837;48.562;12.108;2023-05-10T14:58:25;3.38;;;2.67;;
26062;SDS011;13837;48.562;12.108;2023-05-10T15:00:51;3.10;;;3.00;;
26062;SDS011;13837;48.562;12.108;2023-05-10T15:03:17;3.47;;;3.17;;
26062;SDS011;13837;48.562;12.108;2023-05-10T15:05:43;3.80;;;3.60;;
26062;SDS011;13837;48.562;12.108;2023-05-10T15:08:09;4.22;;;3.95;;